sensor_id;sensor_type;location;lat;lon;timestamp;P1;durP1;ratioP1;P2;durP2;ratioP2
17524;SDS011;40431;52.198;9.902;2023-05-17T00:01:07;4.03;;;3.40;;
17524;SDS011;40431;52.198;9.902;2023-05-17T00:03:34;4.03;;;2.70;;
17524;SDS011;40431;52.198;9.902;2023-05-17T00:06:00;7.10;;;3.77;;
17524;SDS011;40431;52.198;9.902;2023-05-17T00:08:26;3.97;;;3.17;;
17524;SDS011;40431;52.198;9.902;2023-05-17T00:10:53;3.70;;;2.93;;
17524;SDS011;40431;52.198;9.902;2023-05-17T00:13:19;4.73;;;3.03;;
17524;SDS011;40431;52.198;9.902;2023-05-17T00:15:47;3.70;;;2.93;;
17524;SDS011;40431;52.198;9.902;2023-05-17T00:18:13;5.17;;;3.27;;
17524;SDS011;40431;52.198;9.902;2023-05-17T00:20:40;6.73;;;3.67;;
17524;SDS011;40431;52.198;9.902;2023-05-17T00:23:06;4.57;;;3.90;;
17524;SDS011;40431;52.198;9.902;2023-05-17T00:25:33;7.87;;;3.47;;
17524;SDS011;40431;52.198;9.902;2023-05-17T00:27:59;4.40;;;3.73;;
17524;SDS011;40431;52.198;9.902;2023-05-17T00:30:26;7.50;;;3.73;;
17524;SDS011;40431;52.198;9.902;2023-05-17T00:32:53;4.43;;;3.00;;
17524;SDS011;40431;52.198;9.902;2023-05-17T00:35:20;4.97;;;3.67;;
17524;SDS011;40431;52.198;9.902;2023-05-17T00:37:46;4.27;;;3.70;;
17524;SDS011;40431;52.198;9.902;2023-05-17T00:40:13;4.53;;;3.50;;
17524;SDS011;40431;52.198;9.902;2023-05-17T00:42:40;5.07;;;3.23;;
17524;SDS011;40431;52.198;9.902;2023-05-17T00:45:07;3.67;;;2.80;;
17524;SDS011;40431;52.198;9.902;2023-05-17T00:47:34;8.03;;;3.80;;
17524;SDS011;40431;52.198;9.902;2023-05-17T00:50:02;4.10;;;3.20;;
17524;SDS011;40431;52.198;9.902;2023-05-17T00:52:29;4.30;;;3.10;;
17524;SDS011;40431;52.198;9.902;2023-05-17T00:54:55;4.47;;;3.07;;
17524;SDS011;40431;52.198;9.902;2023-05-17T00:57:22;11.83;;;3.33;;
17524;SDS011;40431;52.198;9.902;2023-05-17T00:59:48;6.13;;;3.20;;
17524;SDS011;40431;52.198;9.902;2023-05-17T01:02:17;6.13;;;3.30;;
17524;SDS011;40431;52.198;9.902;2023-05-17T01:04:43;7.10;;;4.20;;
17524;SDS011;40431;52.198;9.902;2023-05-17T01:07:11;9.73;;;4.20;;
17524;SDS011;40431;52.198;9.902;2023-05-17T01:09:37;9.20;;;4.30;;
17524;SDS011;40431;52.198;9.902;2023-05-17T01:12:06;8.93;;;3.83;;
17524;SDS011;40431;52.198;9.902;2023-05-17T01:14:42;8.90;;;4.23;;
17524;SDS011;40431;52.198;9.902;2023-05-17T01:17:16;13.77;;;3.90;;
17524;SDS011;40431;52.198;9.902;2023-05-17T01:19:54;5.43;;;3.70;;
17524;SDS011;40431;52.198;9.902;2023-05-17T01:22:42;6.80;;;4.13;;
17524;SDS011;40431;52.198;9.902;2023-05-17T01:25:17;4.87;;;3.70;;
17524;SDS011;40431;52.198;9.902;2023-05-17T01:27:55;6.87;;;3.33;;
17524;SDS011;40431;52.198;9.902;2023-05-17T01:30:24;4.80;;;3.57;;
17524;SDS011;40431;52.198;9.902;2023-05-17T01:32:51;8.17;;;4.17;;
17524;SDS011;40431;52.198;9.902;2023-05-17T01:35:21;8.70;;;3.90;;
17524;SDS011;40431;52.198;9.902;2023-05-17T01:37:47;9.57;;;4.33;;
17524;SDS011;40431;52.198;9.902;2023-05-17T01:40:14;7.67;;;3.50;;
17524;SDS011;40431;52.198;9.902;2023-05-17T01:42:43;8.93;;;4.50;;
17524;SDS011;40431;52.198;9.902;2023-05-17T01:45:14;6.93;;;3.97;;
17524;SDS011;40431;52.198;9.902;2023-05-17T01:47:48;6.07;;;3.80;;
17524;SDS011;40431;52.198;9.902;2023-05-17T01:50:22;12.60;;;4.37;;
17524;SDS011;40431;52.198;9.902;2023-05-17T01:52:52;7.97;;;4.60;;
17524;SDS011;40431;52.198;9.902;2023-05-17T01:55:23;5.27;;;3.70;;
17524;SDS011;40431;52.198;9.902;2023-05-17T01:57:52;5.67;;;3.97;;
17524;SDS011;40431;52.198;9.902;2023-05-17T02:00:22;7.27;;;3.90;;
17524;SDS011;40431;52.198;9.902;2023-05-17T02:02:50;6.67;;;4.80;;
17524;SDS011;40431;52.198;9.902;2023-05-17T02:05:16;8.53;;;4.53;;
17524;SDS011;40431;52.198;9.902;2023-05-17T02:07:43;7.50;;;4.17;;
17524;SDS011;40431;52.198;9.902;2023-05-17T02:10:09;7.13;;;4.23;;
17524;SDS011;40431;52.198;9.902;2023-05-17T02:12:36;12.47;;;5.50;;
17524;SDS011;40431;52.198;9.902;2023-05-17T02:15:03;14.03;;;4.57;;
17524;SDS011;40431;52.198;9.902;2023-05-17T02:17:32;8.30;;;4.77;;
17524;SDS011;40431;52.198;9.902;2023-05-17T02:19:59;8.67;;;4.60;;
17524;SDS011;40431;52.198;9.902;2023-05-17T02:22:25;8.07;;;5.13;;
17524;SDS011;40431;52.198;9.902;2023-05-17T02:24:51;10.57;;;5.30;;
17524;SDS011;40431;52.198;9.902;2023-05-17T02:27:18;11.57;;;5.10;;
17524;SDS011;40431;52.198;9.902;2023-05-17T02:29:44;8.33;;;4.50;;
17524;SDS011;40431;52.198;9.902;2023-05-17T02:32:11;8.83;;;4.57;;
17524;SDS011;40431;52.198;9.902;2023-05-17T02:34:38;9.23;;;4.67;;
17524;SDS011;40431;52.198;9.902;2023-05-17T02:37:05;8.53;;;4.20;;
17524;SDS011;40431;52.198;9.902;2023-05-17T02:39:31;6.87;;;4.53;;
17524;SDS011;40431;52.198;9.902;2023-05-17T02:41:58;13.17;;;5.00;;
17524;SDS011;40431;52.198;9.902;2023-05-17T02:44:24;8.73;;;4.63;;
17524;SDS011;40431;52.198;9.902;2023-05-17T02:46:50;9.10;;;5.23;;
17524;SDS011;40431;52.198;9.902;2023-05-17T02:49:17;8.80;;;4.23;;
17524;SDS011;40431;52.198;9.902;2023-05-17T02:51:44;8.27;;;4.63;;
17524;SDS011;40431;52.198;9.902;2023-05-17T02:54:11;7.57;;;4.57;;
17524;SDS011;40431;52.198;9.902;2023-05-17T02:56:37;12.23;;;6.13;;
17524;SDS011;40431;52.198;9.902;2023-05-17T02:59:04;14.33;;;5.87;;
17524;SDS011;40431;52.198;9.902;2023-05-17T03:01:30;10.33;;;4.97;;
17524;SDS011;40431;52.198;9.902;2023-05-17T03:03:56;10.50;;;5.40;;
17524;SDS011;40431;52.198;9.902;2023-05-17T03:06:23;10.20;;;5.10;;
17524;SDS011;40431;52.198;9.902;2023-05-17T03:08:51;8.70;;;5.53;;
17524;SDS011;40431;52.198;9.902;2023-05-17T03:11:17;10.80;;;6.07;;
17524;SDS011;40431;52.198;9.902;2023-05-17T03:13:43;9.23;;;5.10;;
17524;SDS011;40431;52.198;9.902;2023-05-17T03:16:15;8.20;;;4.97;;
17524;SDS011;40431;52.198;9.902;2023-05-17T03:18:41;12.23;;;5.97;;
17524;SDS011;40431;52.198;9.902;2023-05-17T03:21:08;8.07;;;5.07;;
17524;SDS011;40431;52.198;9.902;2023-05-17T03:23:34;12.73;;;5.80;;
17524;SDS011;40431;52.198;9.902;2023-05-17T03:26:02;9.93;;;5.17;;
17524;SDS011;40431;52.198;9.902;2023-05-17T03:28:28;9.00;;;5.30;;
17524;SDS011;40431;52.198;9.902;2023-05-17T03:30:55;12.07;;;5.70;;
17524;SDS011;40431;52.198;9.902;2023-05-17T03:33:21;11.27;;;5.47;;
17524;SDS011;40431;52.198;9.902;2023-05-17T03:35:48;12.03;;;5.67;;
17524;SDS011;40431;52.198;9.902;2023-05-17T03:38:14;6.90;;;4.63;;
17524;SDS011;40431;52.198;9.902;2023-05-17T03:40:41;10.20;;;4.97;;
17524;SDS011;40431;52.198;9.902;2023-05-17T03:43:09;10.03;;;5.47;;
17524;SDS011;40431;52.198;9.902;2023-05-17T03:45:35;9.40;;;5.50;;
17524;SDS011;40431;52.198;9.902;2023-05-17T03:48:01;13.73;;;5.20;;
17524;SDS011;40431;52.198;9.902;2023-05-17T03:50:28;10.27;;;5.47;;
17524;SDS011;40431;52.198;9.902;2023-05-17T03:52:55;14.17;;;5.93;;
17524;SDS011;40431;52.198;9.902;2023-05-17T03:55:22;13.00;;;5.93;;
17524;SDS011;40431;52.198;9.902;2023-05-17T03:57:48;8.73;;;5.70;;
17524;SDS011;40431;52.198;9.902;2023-05-17T04:00:16;10.83;;;5.17;;
17524;SDS011;40431;52.198;9.902;2023-05-17T04:02:45;11.33;;;5.27;;
17524;SDS011;40431;52.198;9.902;2023-05-17T04:05:12;9.77;;;5.07;;
17524;SDS011;40431;52.198;9.902;2023-05-17T04:07:38;9.23;;;5.73;;
17524;SDS011;40431;52.198;9.902;2023-05-17T04:10:05;9.37;;;5.33;;
17524;SDS011;40431;52.198;9.902;2023-05-17T04:12:32;10.93;;;6.10;;
17524;SDS011;40431;52.198;9.902;2023-05-17T04:14:59;10.00;;;5.33;;
17524;SDS011;40431;52.198;9.902;2023-05-17T04:17:27;10.13;;;5.67;;
17524;SDS011;40431;52.198;9.902;2023-05-17T04:19:53;8.27;;;5.10;;
17524;SDS011;40431;52.198;9.902;2023-05-17T04:22:19;8.00;;;4.77;;
17524;SDS011;40431;52.198;9.902;2023-05-17T04:24:46;9.23;;;5.80;;
17524;SDS011;40431;52.198;9.902;2023-05-17T04:27:12;11.30;;;4.87;;
17524;SDS011;40431;52.198;9.902;2023-05-17T04:29:39;9.20;;;5.57;;
17524;SDS011;40431;52.198;9.902;2023-05-17T04:32:06;13.77;;;5.07;;
17524;SDS011;40431;52.198;9.902;2023-05-17T04:34:34;11.97;;;4.83;;
17524;SDS011;40431;52.198;9.902;2023-05-17T04:37:00;9.40;;;5.07;;
17524;SDS011;40431;52.198;9.902;2023-05-17T04:39:27;7.93;;;5.63;;
17524;SDS011;40431;52.198;9.902;2023-05-17T04:41:54;12.27;;;4.93;;
17524;SDS011;40431;52.198;9.902;2023-05-17T04:44:20;7.67;;;3.97;;
17524;SDS011;40431;52.198;9.902;2023-05-17T04:46:46;10.13;;;4.63;;
17524;SDS011;40431;52.198;9.902;2023-05-17T04:49:13;12.37;;;5.03;;
17524;SDS011;40431;52.198;9.902;2023-05-17T04:51:41;12.13;;;4.93;;
17524;SDS011;40431;52.198;9.902;2023-05-17T04:54:07;13.03;;;5.63;;
17524;SDS011;40431;52.198;9.902;2023-05-17T04:56:33;11.10;;;4.93;;
17524;SDS011;40431;52.198;9.902;2023-05-17T04:59:00;10.83;;;5.40;;
17524;SDS011;40431;52.198;9.902;2023-05-17T05:01:27;8.23;;;4.23;;
17524;SDS011;40431;52.198;9.902;2023-05-17T05:03:54;12.73;;;4.87;;
17524;SDS011;40431;52.198;9.902;2023-05-17T05:06:21;10.23;;;5.57;;
17524;SDS011;40431;52.198;9.902;2023-05-17T05:08:49;12.20;;;4.97;;
17524;SDS011;40431;52.198;9.902;2023-05-17T05:11:15;7.93;;;4.87;;
17524;SDS011;40431;52.198;9.902;2023-05-17T05:13:41;9.07;;;4.97;;
17524;SDS011;40431;52.198;9.902;2023-05-17T05:16:08;10.13;;;4.10;;
17524;SDS011;40431;52.198;9.902;2023-05-17T05:18:34;11.07;;;4.47;;
17524;SDS011;40431;52.198;9.902;2023-05-17T05:21:01;7.30;;;4.40;;
17524;SDS011;40431;52.198;9.902;2023-05-17T05:23:27;11.20;;;4.13;;
17524;SDS011;40431;52.198;9.902;2023-05-17T05:25:55;8.80;;;3.90;;
17524;SDS011;40431;52.198;9.902;2023-05-17T05:28:21;9.00;;;4.60;;
17524;SDS011;40431;52.198;9.902;2023-05-17T05:30:48;13.57;;;5.20;;
17524;SDS011;40431;52.198;9.902;2023-05-17T05:33:14;7.23;;;3.77;;
17524;SDS011;40431;52.198;9.902;2023-05-17T05:35:40;10.40;;;4.40;;
17524;SDS011;40431;52.198;9.902;2023-05-17T05:38:07;11.07;;;5.20;;
17524;SDS011;40431;52.198;9.902;2023-05-17T05:40:33;8.13;;;4.20;;
17524;SDS011;40431;52.198;9.902;2023-05-17T05:43:01;11.67;;;3.93;;
17524;SDS011;40431;52.198;9.902;2023-05-17T05:45:27;12.17;;;3.90;;
17524;SDS011;40431;52.198;9.902;2023-05-17T05:47:54;10.83;;;4.83;;
17524;SDS011;40431;52.198;9.902;2023-05-17T05:50:20;5.80;;;3.43;;
17524;SDS011;40431;52.198;9.902;2023-05-17T05:52:47;10.83;;;4.63;;
17524;SDS011;40431;52.198;9.902;2023-05-17T05:55:13;13.87;;;4.20;;
17524;SDS011;40431;52.198;9.902;2023-05-17T05:57:39;13.17;;;4.17;;
17524;SDS011;40431;52.198;9.902;2023-05-17T06:00:08;13.33;;;3.13;;
17524;SDS011;40431;52.198;9.902;2023-05-17T06:02:36;13.33;;;3.77;;
17524;SDS011;40431;52.198;9.902;2023-05-17T06:05:02;10.40;;;4.17;;
17524;SDS011;40431;52.198;9.902;2023-05-17T06:07:29;10.47;;;3.90;;
17524;SDS011;40431;52.198;9.902;2023-05-17T06:09:55;9.47;;;3.33;;
17524;SDS011;40431;52.198;9.902;2023-05-17T06:12:22;8.23;;;3.17;;
17524;SDS011;40431;52.198;9.902;2023-05-17T06:14:48;6.40;;;3.40;;
17524;SDS011;40431;52.198;9.902;2023-05-17T06:17:16;6.33;;;3.07;;
17524;SDS011;40431;52.198;9.902;2023-05-17T06:19:42;8.53;;;3.63;;
17524;SDS011;40431;52.198;9.902;2023-05-17T06:22:08;6.33;;;2.87;;
17524;SDS011;40431;52.198;9.902;2023-05-17T06:24:35;7.50;;;2.83;;
17524;SDS011;40431;52.198;9.902;2023-05-17T06:27:01;10.00;;;3.10;;
17524;SDS011;40431;52.198;9.902;2023-05-17T06:29:27;8.03;;;3.20;;
17524;SDS011;40431;52.198;9.902;2023-05-17T06:31:54;6.97;;;2.97;;
17524;SDS011;40431;52.198;9.902;2023-05-17T06:34:22;9.43;;;3.67;;
17524;SDS011;40431;52.198;9.902;2023-05-17T06:36:48;8.57;;;3.23;;
17524;SDS011;40431;52.198;9.902;2023-05-17T06:39:15;6.77;;;3.43;;
17524;SDS011;40431;52.198;9.902;2023-05-17T06:41:41;8.70;;;2.97;;
17524;SDS011;40431;52.198;9.902;2023-05-17T06:44:08;7.43;;;3.03;;
17524;SDS011;40431;52.198;9.902;2023-05-17T06:46:34;11.27;;;3.80;;
17524;SDS011;40431;52.198;9.902;2023-05-17T06:49:01;6.77;;;2.90;;
17524;SDS011;40431;52.198;9.902;2023-05-17T06:51:29;8.90;;;3.00;;
17524;SDS011;40431;52.198;9.902;2023-05-17T06:53:56;11.83;;;3.90;;
17524;SDS011;40431;52.198;9.902;2023-05-17T06:56:22;8.67;;;2.87;;
17524;SDS011;40431;52.198;9.902;2023-05-17T06:58:48;8.10;;;3.10;;
17524;SDS011;40431;52.198;9.902;2023-05-17T07:01:15;6.27;;;3.27;;
17524;SDS011;40431;52.198;9.902;2023-05-17T07:03:42;6.53;;;3.40;;
17524;SDS011;40431;52.198;9.902;2023-05-17T07:06:09;9.47;;;3.30;;
17524;SDS011;40431;52.198;9.902;2023-05-17T07:08:37;8.97;;;3.20;;
17524;SDS011;40431;52.198;9.902;2023-05-17T07:11:04;6.13;;;2.83;;
17524;SDS011;40431;52.198;9.902;2023-05-17T07:13:31;15.83;;;4.43;;
17524;SDS011;40431;52.198;9.902;2023-05-17T07:15:58;10.77;;;3.43;;
17524;SDS011;40431;52.198;9.902;2023-05-17T07:18:24;9.60;;;3.27;;
17524;SDS011;40431;52.198;9.902;2023-05-17T07:20:50;12.80;;;3.73;;
17524;SDS011;40431;52.198;9.902;2023-05-17T07:23:17;7.13;;;2.57;;
17524;SDS011;40431;52.198;9.902;2023-05-17T07:25:45;7.07;;;2.70;;
17524;SDS011;40431;52.198;9.902;2023-05-17T07:28:11;6.23;;;2.60;;
17524;SDS011;40431;52.198;9.902;2023-05-17T07:30:37;7.63;;;3.43;;
17524;SDS011;40431;52.198;9.902;2023-05-17T07:33:04;9.27;;;2.87;;
17524;SDS011;40431;52.198;9.902;2023-05-17T07:35:30;7.83;;;3.27;;
17524;SDS011;40431;52.198;9.902;2023-05-17T07:37:56;7.23;;;3.23;;
17524;SDS011;40431;52.198;9.902;2023-05-17T07:40:23;6.13;;;2.70;;
17524;SDS011;40431;52.198;9.902;2023-05-17T07:42:51;10.70;;;3.10;;
17524;SDS011;40431;52.198;9.902;2023-05-17T07:45:17;5.57;;;2.87;;
17524;SDS011;40431;52.198;9.902;2023-05-17T07:47:44;4.33;;;2.20;;
17524;SDS011;40431;52.198;9.902;2023-05-17T07:50:10;6.53;;;2.63;;
17524;SDS011;40431;52.198;9.902;2023-05-17T07:52:37;4.93;;;2.50;;
17524;SDS011;40431;52.198;9.902;2023-05-17T07:55:03;6.67;;;2.33;;
17524;SDS011;40431;52.198;9.902;2023-05-17T07:57:30;8.57;;;2.13;;
17524;SDS011;40431;52.198;9.902;2023-05-17T07:59:58;4.63;;;2.23;;
17524;SDS011;40431;52.198;9.902;2023-05-17T08:02:24;5.73;;;2.00;;
17524;SDS011;40431;52.198;9.902;2023-05-17T08:04:51;4.60;;;2.53;;
17524;SDS011;40431;52.198;9.902;2023-05-17T08:07:17;5.90;;;2.40;;
17524;SDS011;40431;52.198;9.902;2023-05-17T08:09:43;10.83;;;2.63;;
17524;SDS011;40431;52.198;9.902;2023-05-17T08:12:10;6.87;;;2.60;;
17524;SDS011;40431;52.198;9.902;2023-05-17T08:14:37;6.70;;;2.80;;
17524;SDS011;40431;52.198;9.902;2023-05-17T08:17:06;6.07;;;2.63;;
17524;SDS011;40431;52.198;9.902;2023-05-17T08:19:32;8.83;;;2.60;;
17524;SDS011;40431;52.198;9.902;2023-05-17T08:21:59;7.67;;;2.30;;
17524;SDS011;40431;52.198;9.902;2023-05-17T08:24:25;6.57;;;2.50;;
17524;SDS011;40431;52.198;9.902;2023-05-17T08:26:51;5.50;;;2.73;;
17524;SDS011;40431;52.198;9.902;2023-05-17T08:29:18;5.00;;;2.53;;
17524;SDS011;40431;52.198;9.902;2023-05-17T08:31:44;5.73;;;2.03;;
17524;SDS011;40431;52.198;9.902;2023-05-17T08:34:12;8.07;;;2.00;;
17524;SDS011;40431;52.198;9.902;2023-05-17T08:36:38;5.03;;;2.43;;
17524;SDS011;40431;52.198;9.902;2023-05-17T08:39:05;6.53;;;2.47;;
17524;SDS011;40431;52.198;9.902;2023-05-17T08:41:32;8.87;;;2.57;;
17524;SDS011;40431;52.198;9.902;2023-05-17T08:43:58;7.37;;;2.40;;
17524;SDS011;40431;52.198;9.902;2023-05-17T08:46:25;6.10;;;2.03;;
17524;SDS011;40431;52.198;9.902;2023-05-17T08:48:52;7.23;;;2.30;;
17524;SDS011;40431;52.198;9.902;2023-05-17T08:51:25;8.53;;;2.40;;
17524;SDS011;40431;52.198;9.902;2023-05-17T08:53:52;4.07;;;2.00;;
17524;SDS011;40431;52.198;9.902;2023-05-17T08:56:19;5.33;;;1.83;;
17524;SDS011;40431;52.198;9.902;2023-05-17T08:58:48;9.63;;;2.67;;
17524;SDS011;40431;52.198;9.902;2023-05-17T09:01:18;7.63;;;2.47;;
17524;SDS011;40431;52.198;9.902;2023-05-17T09:03:46;7.70;;;3.00;;
17524;SDS011;40431;52.198;9.902;2023-05-17T09:06:13;6.17;;;2.57;;
17524;SDS011;40431;52.198;9.902;2023-05-17T09:08:43;6.97;;;2.47;;
17524;SDS011;40431;52.198;9.902;2023-05-17T09:11:09;5.73;;;2.73;;
17524;SDS011;40431;52.198;9.902;2023-05-17T09:13:35;7.40;;;3.03;;
17524;SDS011;40431;52.198;9.902;2023-05-17T09:16:02;7.50;;;2.43;;
17524;SDS011;40431;52.198;9.902;2023-05-17T09:18:37;5.87;;;2.57;;
17524;SDS011;40431;52.198;9.902;2023-05-17T09:21:04;4.83;;;2.73;;
17524;SDS011;40431;52.198;9.902;2023-05-17T09:23:30;9.50;;;3.03;;
17524;SDS011;40431;52.198;9.902;2023-05-17T09:26:08;6.13;;;2.77;;
17524;SDS011;40431;52.198;9.902;2023-05-17T09:28:38;6.77;;;2.80;;
17524;SDS011;40431;52.198;9.902;2023-05-17T09:31:06;4.50;;;2.33;;
17524;SDS011;40431;52.198;9.902;2023-05-17T09:33:33;7.20;;;2.23;;
17524;SDS011;40431;52.198;9.902;2023-05-17T09:36:00;4.70;;;2.83;;
17524;SDS011;40431;52.198;9.902;2023-05-17T09:38:27;7.07;;;2.60;;
17524;SDS011;40431;52.198;9.902;2023-05-17T09:40:54;5.63;;;2.40;;
17524;SDS011;40431;52.198;9.902;2023-05-17T09:43:23;6.00;;;3.20;;
17524;SDS011;40431;52.198;9.902;2023-05-17T09:45:53;11.87;;;2.90;;
17524;SDS011;40431;52.198;9.902;2023-05-17T09:48:20;6.30;;;2.93;;
17524;SDS011;40431;52.198;9.902;2023-05-17T09:50:48;6.40;;;2.43;;
17524;SDS011;40431;52.198;9.902;2023-05-17T09:53:23;7.30;;;3.07;;
17524;SDS011;40431;52.198;9.902;2023-05-17T09:55:50;7.77;;;3.13;;
17524;SDS011;40431;52.198;9.902;2023-05-17T09:58:18;12.17;;;3.60;;
17524;SDS011;40431;52.198;9.902;2023-05-17T10:00:46;8.47;;;3.33;;
17524;SDS011;40431;52.198;9.902;2023-05-17T10:03:16;6.90;;;3.40;;
17524;SDS011;40431;52.198;9.902;2023-05-17T10:05:42;10.17;;;2.80;;
17524;SDS011;40431;52.198;9.902;2023-05-17T10:08:10;5.30;;;2.87;;
17524;SDS011;40431;52.198;9.902;2023-05-17T10:10:39;9.50;;;3.23;;
17524;SDS011;40431;52.198;9.902;2023-05-17T10:13:06;13.23;;;3.57;;
17524;SDS011;40431;52.198;9.902;2023-05-17T10:15:35;10.47;;;3.83;;
17524;SDS011;40431;52.198;9.902;2023-05-17T10:18:05;6.90;;;2.83;;
17524;SDS011;40431;52.198;9.902;2023-05-17T10:20:34;7.37;;;3.03;;
17524;SDS011;40431;52.198;9.902;2023-05-17T10:23:01;7.77;;;2.50;;
17524;SDS011;40431;52.198;9.902;2023-05-17T10:25:30;6.47;;;2.67;;
17524;SDS011;40431;52.198;9.902;2023-05-17T10:27:57;6.47;;;2.90;;
17524;SDS011;40431;52.198;9.902;2023-05-17T10:30:24;6.00;;;2.47;;
17524;SDS011;40431;52.198;9.902;2023-05-17T10:32:51;4.97;;;2.40;;
17524;SDS011;40431;52.198;9.902;2023-05-17T10:35:20;7.30;;;2.90;;
17524;SDS011;40431;52.198;9.902;2023-05-17T10:37:47;4.67;;;2.13;;
17524;SDS011;40431;52.198;9.902;2023-05-17T10:40:14;7.47;;;2.80;;
17524;SDS011;40431;52.198;9.902;2023-05-17T10:42:43;7.47;;;3.20;;
17524;SDS011;40431;52.198;9.902;2023-05-17T10:45:14;5.63;;;2.20;;
17524;SDS011;40431;52.198;9.902;2023-05-17T10:47:41;7.07;;;2.90;;
17524;SDS011;40431;52.198;9.902;2023-05-17T10:50:10;7.13;;;2.80;;
17524;SDS011;40431;52.198;9.902;2023-05-17T10:52:44;5.47;;;2.93;;
17524;SDS011;40431;52.198;9.902;2023-05-17T10:55:12;8.57;;;2.70;;
17524;SDS011;40431;52.198;9.902;2023-05-17T10:57:42;7.73;;;2.97;;
17524;SDS011;40431;52.198;9.902;2023-05-17T11:00:09;10.17;;;3.20;;
17524;SDS011;40431;52.198;9.902;2023-05-17T11:02:45;6.67;;;2.67;;
17524;SDS011;40431;52.198;9.902;2023-05-17T11:05:21;5.20;;;2.83;;
17524;SDS011;40431;52.198;9.902;2023-05-17T11:07:49;7.83;;;5.43;;
17524;SDS011;40431;52.198;9.902;2023-05-17T11:10:16;5.20;;;3.07;;
17524;SDS011;40431;52.198;9.902;2023-05-17T11:12:43;6.80;;;2.57;;
17524;SDS011;40431;52.198;9.902;2023-05-17T11:15:12;7.00;;;2.60;;
17524;SDS011;40431;52.198;9.902;2023-05-17T11:20:31;4.17;;;2.53;;
17524;SDS011;40431;52.198;9.902;2023-05-17T11:23:02;5.37;;;2.70;;
17524;SDS011;40431;52.198;9.902;2023-05-17T11:25:33;5.17;;;2.23;;
17524;SDS011;40431;52.198;9.902;2023-05-17T11:28:05;4.47;;;2.70;;
17524;SDS011;40431;52.198;9.902;2023-05-17T11:30:32;4.50;;;2.30;;
17524;SDS011;40431;52.198;9.902;2023-05-17T11:32:59;6.83;;;2.47;;
17524;SDS011;40431;52.198;9.902;2023-05-17T11:35:27;3.23;;;1.93;;
17524;SDS011;40431;52.198;9.902;2023-05-17T11:40:43;3.00;;;2.23;;
17524;SDS011;40431;52.198;9.902;2023-05-17T11:43:10;5.13;;;2.20;;
17524;SDS011;40431;52.198;9.902;2023-05-17T11:45:39;5.40;;;2.97;;
17524;SDS011;40431;52.198;9.902;2023-05-17T11:48:07;6.77;;;4.57;;
17524;SDS011;40431;52.198;9.902;2023-05-17T11:50:34;6.23;;;3.03;;
17524;SDS011;40431;52.198;9.902;2023-05-17T11:53:02;6.60;;;4.20;;
17524;SDS011;40431;52.198;9.902;2023-05-17T11:55:31;6.13;;;3.83;;
17524;SDS011;40431;52.198;9.902;2023-05-17T11:57:58;3.97;;;2.20;;
17524;SDS011;40431;52.198;9.902;2023-05-17T12:00:24;6.97;;;2.70;;
17524;SDS011;40431;52.198;9.902;2023-05-17T12:02:52;5.83;;;2.67;;
17524;SDS011;40431;52.198;9.902;2023-05-17T12:05:19;9.70;;;6.97;;
17524;SDS011;40431;52.198;9.902;2023-05-17T12:07:46;8.77;;;6.57;;
17524;SDS011;40431;52.198;9.902;2023-05-17T12:10:13;8.77;;;5.17;;
17524;SDS011;40431;52.198;9.902;2023-05-17T12:12:40;7.00;;;3.53;;
17524;SDS011;40431;52.198;9.902;2023-05-17T12:15:08;7.97;;;5.47;;
17524;SDS011;40431;52.198;9.902;2023-05-17T12:17:37;4.37;;;3.40;;
17524;SDS011;40431;52.198;9.902;2023-05-17T12:20:09;7.17;;;4.60;;
17524;SDS011;40431;52.198;9.902;2023-05-17T12:22:50;8.27;;;3.27;;
17524;SDS011;40431;52.198;9.902;2023-05-17T12:25:20;6.23;;;2.47;;
17524;SDS011;40431;52.198;9.902;2023-05-17T12:27:50;4.87;;;3.00;;
17524;SDS011;40431;52.198;9.902;2023-05-17T12:30:17;6.73;;;3.17;;
17524;SDS011;40431;52.198;9.902;2023-05-17T12:32:44;5.03;;;2.83;;
17524;SDS011;40431;52.198;9.902;2023-05-17T12:35:12;5.70;;;3.23;;
17524;SDS011;40431;52.198;9.902;2023-05-17T12:37:39;5.30;;;2.60;;
17524;SDS011;40431;52.198;9.902;2023-05-17T12:40:06;3.07;;;2.10;;
17524;SDS011;40431;52.198;9.902;2023-05-17T12:42:35;5.20;;;2.20;;
17524;SDS011;40431;52.198;9.902;2023-05-17T12:45:06;5.20;;;1.80;;
17524;SDS011;40431;52.198;9.902;2023-05-17T12:47:36;4.97;;;2.30;;
17524;SDS011;40431;52.198;9.902;2023-05-17T12:50:03;4.23;;;1.93;;
17524;SDS011;40431;52.198;9.902;2023-05-17T12:52:32;4.33;;;1.93;;
17524;SDS011;40431;52.198;9.902;2023-05-17T12:54:58;4.10;;;2.20;;
17524;SDS011;40431;52.198;9.902;2023-05-17T12:57:27;4.23;;;2.13;;
17524;SDS011;40431;52.198;9.902;2023-05-17T12:59:53;4.10;;;2.30;;
17524;SDS011;40431;52.198;9.902;2023-05-17T13:02:21;4.10;;;2.20;;
17524;SDS011;40431;52.198;9.902;2023-05-17T13:04:48;2.73;;;1.77;;
17524;SDS011;40431;52.198;9.902;2023-05-17T13:07:20;3.10;;;1.90;;
17524;SDS011;40431;52.198;9.902;2023-05-17T13:09:47;4.43;;;2.00;;
17524;SDS011;40431;52.198;9.902;2023-05-17T13:12:17;4.93;;;2.73;;
17524;SDS011;40431;52.198;9.902;2023-05-17T13:14:45;2.90;;;2.00;;
17524;SDS011;40431;52.198;9.902;2023-05-17T13:17:16;6.00;;;2.43;;
17524;SDS011;40431;52.198;9.902;2023-05-17T13:19:46;7.40;;;2.90;;
17524;SDS011;40431;52.198;9.902;2023-05-17T13:22:13;6.83;;;2.00;;
17524;SDS011;40431;52.198;9.902;2023-05-17T13:24:41;7.90;;;2.70;;
17524;SDS011;40431;52.198;9.902;2023-05-17T13:27:08;6.40;;;2.43;;
17524;SDS011;40431;52.198;9.902;2023-05-17T13:29:35;4.73;;;2.47;;
17524;SDS011;40431;52.198;9.902;2023-05-17T13:32:03;4.47;;;2.43;;
17524;SDS011;40431;52.198;9.902;2023-05-17T13:34:30;6.23;;;2.20;;
17524;SDS011;40431;52.198;9.902;2023-05-17T13:36:58;3.90;;;2.07;;
17524;SDS011;40431;52.198;9.902;2023-05-17T13:39:24;3.63;;;1.70;;
17524;SDS011;40431;52.198;9.902;2023-05-17T13:41:51;4.13;;;2.00;;
17524;SDS011;40431;52.198;9.902;2023-05-17T13:44:17;3.53;;;2.27;;
17524;SDS011;40431;52.198;9.902;2023-05-17T13:46:43;3.90;;;2.10;;
17524;SDS011;40431;52.198;9.902;2023-05-17T13:49:10;3.17;;;2.03;;
17524;SDS011;40431;52.198;9.902;2023-05-17T13:51:36;3.00;;;1.67;;
17524;SDS011;40431;52.198;9.902;2023-05-17T13:54:05;3.57;;;2.10;;
17524;SDS011;40431;52.198;9.902;2023-05-17T13:56:31;3.87;;;2.30;;
17524;SDS011;40431;52.198;9.902;2023-05-17T13:58:57;5.47;;;2.43;;
17524;SDS011;40431;52.198;9.902;2023-05-17T14:01:24;6.83;;;2.40;;
17524;SDS011;40431;52.198;9.902;2023-05-17T14:03:51;4.03;;;2.30;;
17524;SDS011;40431;52.198;9.902;2023-05-17T14:06:18;3.73;;;2.10;;
17524;SDS011;40431;52.198;9.902;2023-05-17T14:08:45;5.43;;;2.17;;
17524;SDS011;40431;52.198;9.902;2023-05-17T14:11:12;4.13;;;2.50;;
17524;SDS011;40431;52.198;9.902;2023-05-17T14:13:39;4.83;;;1.93;;
17524;SDS011;40431;52.198;9.902;2023-05-17T14:16:06;4.53;;;2.67;;
17524;SDS011;40431;52.198;9.902;2023-05-17T14:18:32;4.13;;;2.30;;
17524;SDS011;40431;52.198;9.902;2023-05-17T14:20:59;5.83;;;2.20;;
17524;SDS011;40431;52.198;9.902;2023-05-17T14:23:27;2.97;;;2.13;;
17524;SDS011;40431;52.198;9.902;2023-05-17T14:25:53;7.13;;;2.83;;
17524;SDS011;40431;52.198;9.902;2023-05-17T14:28:22;4.93;;;2.10;;
17524;SDS011;40431;52.198;9.902;2023-05-17T14:30:49;4.20;;;1.80;;
17524;SDS011;40431;52.198;9.902;2023-05-17T14:33:15;5.30;;;2.10;;
17524;SDS011;40431;52.198;9.902;2023-05-17T14:35:42;4.93;;;2.37;;
17524;SDS011;40431;52.198;9.902;2023-05-17T14:38:08;5.33;;;1.93;;
17524;SDS011;40431;52.198;9.902;2023-05-17T14:40:35;5.73;;;2.10;;
17524;SDS011;40431;52.198;9.902;2023-05-17T14:43:01;5.73;;;1.60;;
17524;SDS011;40431;52.198;9.902;2023-05-17T14:45:29;3.20;;;1.73;;
17524;SDS011;40431;52.198;9.902;2023-05-17T14:47:55;3.40;;;2.43;;
17524;SDS011;40431;52.198;9.902;2023-05-17T14:50:21;3.33;;;2.03;;
17524;SDS011;40431;52.198;9.902;2023-05-17T14:52:48;4.43;;;2.20;;